createdAt,value
2023-04-15T00:01:01.641Z,9.50
2023-04-15T00:03:29.683Z,9.40
2023-04-15T00:05:57.814Z,9.40
2023-04-15T00:08:24.672Z,9.30
2023-04-15T00:10:51.501Z,9.30
2023-04-15T00:13:18.326Z,9.30
2023-04-15T00:15:45.081Z,9.30
2023-04-15T00:18:11.917Z,9.30
2023-04-15T00:20:38.915Z,9.20
2023-04-15T00:23:05.778Z,9.20
2023-04-15T00:25:33.077Z,9.20
2023-04-15T00:27:59.961Z,9.20
2023-04-15T00:30:26.895Z,9.10
2023-04-15T00:32:53.889Z,9.10
2023-04-15T00:35:22.460Z,9.10
2023-04-15T00:37:51.420Z,9.10
2023-04-15T00:40:21.079Z,9.10
2023-04-15T00:42:48.299Z,9.00
2023-04-15T00:45:15.803Z,9.00
2023-04-15T00:47:43.759Z,9.00
2023-04-15T00:50:12.560Z,8.90
2023-04-15T00:52:40.606Z,8.90
2023-04-15T00:55:08.770Z,8.90
2023-04-15T00:57:36.441Z,8.90
2023-04-15T01:00:05.696Z,8.90
2023-04-15T01:02:33.546Z,8.80
2023-04-15T01:05:04.032Z,8.80
2023-04-15T01:07:32.091Z,8.70
2023-04-15T01:09:59.249Z,8.70
2023-04-15T01:12:27.594Z,8.70
2023-04-15T01:14:55.363Z,8.60
2023-04-15T01:17:22.216Z,8.60
2023-04-15T01:19:49.200Z,8.50
2023-04-15T01:22:16.507Z,8.50
2023-04-15T01:24:56.245Z,8.50
2023-04-15T01:27:23.317Z,8.40
2023-04-15T01:29:50.230Z,8.40
2023-04-15T01:32:17.132Z,8.40
2023-04-15T01:34:44.351Z,8.30
2023-04-15T01:37:11.687Z,8.30
2023-04-15T01:39:39.537Z,8.30
2023-04-15T01:42:06.876Z,8.30
2023-04-15T01:44:33.816Z,8.30
2023-04-15T01:47:00.752Z,8.20
2023-04-15T01:49:27.655Z,8.20
2023-04-15T01:51:54.906Z,8.20
2023-04-15T01:54:21.816Z,8.20
2023-04-15T01:56:48.662Z,8.20
2023-04-15T01:59:15.505Z,8.20
2023-04-15T02:01:42.360Z,8.10
2023-04-15T02:04:16.441Z,8.10
2023-04-15T02:06:43.984Z,8.10
2023-04-15T02:09:12.482Z,8.10
2023-04-15T02:11:39.520Z,8.00
2023-04-15T02:14:06.537Z,8.00
2023-04-15T02:16:33.973Z,8.00
2023-04-15T02:19:01.421Z,8.00
2023-04-15T02:21:28.547Z,7.90
2023-04-15T02:23:55.920Z,7.90
2023-04-15T02:26:22.989Z,7.90
2023-04-15T02:28:51.387Z,7.90
2023-04-15T02:31:18.502Z,7.90
2023-04-15T02:33:45.406Z,7.80
2023-04-15T02:36:12.417Z,7.80
2023-04-15T02:38:42.281Z,7.80
2023-04-15T02:41:11.804Z,7.80
2023-04-15T02:43:40.017Z,7.70
2023-04-15T02:46:08.482Z,7.70
2023-04-15T02:48:35.991Z,7.70
2023-04-15T02:51:19.632Z,7.70
2023-04-15T02:53:48.383Z,7.70
2023-04-15T02:56:17.033Z,7.70
2023-04-15T02:58:45.725Z,7.60
2023-04-15T03:01:13.023Z,7.60
2023-04-15T03:03:41.034Z,7.60
2023-04-15T03:06:09.070Z,7.60
2023-04-15T03:08:36.434Z,7.60
2023-04-15T03:11:03.903Z,7.60
2023-04-15T03:13:31.855Z,7.60
2023-04-15T03:16:02.511Z,7.60
2023-04-15T03:18:31.246Z,7.60
2023-04-15T03:21:02.655Z,7.60
2023-04-15T03:23:32.070Z,7.50
2023-04-15T03:26:02.414Z,7.50
2023-04-15T03:28:31.160Z,7.50
2023-04-15T03:30:59.398Z,7.50
2023-04-15T03:33:26.323Z,7.50
2023-04-15T03:35:53.514Z,7.50
2023-04-15T03:38:20.668Z,7.40
2023-04-15T03:40:47.567Z,7.40
2023-04-15T03:43:14.435Z,7.40
2023-04-15T03:45:41.258Z,7.40
2023-04-15T03:48:17.363Z,7.40
2023-04-15T03:50:46.041Z,7.40
2023-04-15T03:53:13.006Z,7.40
2023-04-15T03:55:40.003Z,7.40
2023-04-15T03:58:06.968Z,7.40
2023-04-15T04:00:33.851Z,7.40
2023-04-15T04:03:00.677Z,7.40
2023-04-15T04:05:27.754Z,7.30
2023-04-15T04:07:54.596Z,7.30
2023-04-15T04:10:21.527Z,7.30
2023-04-15T04:12:48.559Z,7.30
2023-04-15T04:15:15.942Z,7.30
2023-04-15T04:17:42.954Z,7.30
2023-04-15T04:20:10.094Z,7.30
2023-04-15T04:22:41.245Z,7.30
2023-04-15T04:25:10.041Z,7.30
2023-04-15T04:27:36.964Z,7.20
2023-04-15T04:30:04.880Z,7.30
2023-04-15T04:32:31.756Z,7.20
2023-04-15T04:34:58.667Z,7.20
2023-04-15T04:37:25.759Z,7.20
2023-04-15T04:39:52.554Z,7.20
2023-04-15T04:42:19.425Z,7.20
2023-04-15T04:44:46.408Z,7.20
2023-04-15T04:47:14.164Z,7.20
2023-04-15T04:49:41.205Z,7.20
2023-04-15T04:52:07.969Z,7.20
2023-04-15T04:54:34.808Z,7.10
2023-04-15T04:57:01.703Z,7.10
2023-04-15T04:59:28.503Z,7.10
2023-04-15T05:01:55.550Z,7.10
2023-04-15T05:04:22.848Z,7.10
2023-04-15T05:06:49.671Z,7.10
2023-04-15T05:09:16.510Z,7.10
2023-04-15T05:11:43.352Z,7.10
2023-04-15T05:14:10.186Z,7.10
2023-04-15T05:16:37.354Z,7.10
2023-04-15T05:19:04.164Z,7.10
2023-04-15T05:21:31.659Z,7.10
2023-04-15T05:23:58.393Z,7.10
2023-04-15T05:26:25.309Z,7.10
2023-04-15T05:28:52.056Z,7.10
2023-04-15T05:31:18.899Z,7.10
2023-04-15T05:33:45.659Z,7.10
2023-04-15T05:36:12.768Z,7.10
2023-04-15T05:38:39.580Z,7.10
2023-04-15T05:41:06.685Z,7.10
2023-04-15T05:43:33.547Z,7.10
2023-04-15T05:46:00.643Z,7.20
2023-04-15T05:48:27.501Z,7.20
2023-04-15T05:50:54.521Z,7.20
2023-04-15T05:53:21.988Z,7.30
2023-04-15T05:55:48.860Z,7.30
2023-04-15T05:58:15.839Z,7.30
2023-04-15T06:00:42.623Z,7.30
2023-04-15T06:03:09.641Z,7.40
2023-04-15T06:05:36.483Z,7.40
2023-04-15T06:08:03.340Z,7.40
2023-04-15T06:10:30.868Z,7.50
2023-04-15T06:12:57.791Z,7.50
2023-04-15T06:15:24.639Z,7.60
2023-04-15T06:17:51.601Z,7.60
2023-04-15T06:20:18.880Z,7.70
2023-04-15T06:22:45.714Z,7.70
2023-04-15T06:25:12.727Z,7.80
2023-04-15T06:27:39.717Z,7.80
2023-04-15T06:30:07.629Z,7.90
2023-04-15T06:32:34.619Z,7.90
2023-04-15T06:35:01.601Z,8.00
2023-04-15T06:37:28.490Z,8.00
2023-04-15T06:39:55.269Z,8.10
2023-04-15T06:42:22.841Z,8.10
2023-04-15T06:44:49.927Z,8.10
2023-04-15T06:47:16.808Z,8.20
2023-04-15T06:49:43.916Z,8.20
2023-04-15T06:52:11.342Z,8.30
2023-04-15T06:54:38.119Z,8.30
2023-04-15T06:57:04.988Z,8.40
2023-04-15T06:59:31.845Z,8.40
2023-04-15T07:01:58.719Z,8.50
2023-04-15T07:04:25.738Z,8.60
2023-04-15T07:06:52.734Z,8.70
2023-04-15T07:09:19.888Z,8.80
2023-04-15T07:11:46.673Z,8.90
2023-04-15T07:14:13.464Z,9.00
2023-04-15T07:16:40.247Z,9.10
2023-04-15T07:19:07.381Z,9.20
2023-04-15T07:21:34.195Z,9.30
2023-04-15T07:24:01.292Z,9.40
2023-04-15T07:26:28.295Z,9.50
2023-04-15T07:28:55.556Z,9.70
2023-04-15T07:31:22.457Z,9.80
2023-04-15T07:33:49.374Z,9.90
2023-04-15T07:36:16.139Z,10.00
2023-04-15T07:38:43.156Z,10.00
2023-04-15T07:41:10.583Z,10.20
2023-04-15T07:43:37.353Z,10.30
2023-04-15T07:46:04.443Z,10.40
2023-04-15T07:48:31.457Z,10.50
2023-04-15T07:50:58.979Z,10.60
2023-04-15T07:53:26.171Z,10.80
2023-04-15T07:55:53.004Z,10.90
2023-04-15T07:58:19.848Z,11.20
2023-04-15T08:00:46.712Z,11.60
2023-04-15T08:03:13.763Z,12.10
2023-04-15T08:05:40.999Z,12.70
2023-04-15T08:08:08.478Z,13.30
2023-04-15T08:10:35.353Z,13.90
2023-04-15T08:13:02.223Z,14.50
2023-04-15T08:15:29.190Z,15.00
2023-04-15T08:17:56.085Z,15.50
2023-04-15T08:20:23.645Z,16.10
2023-04-15T08:22:52.172Z,16.70
2023-04-15T08:25:19.951Z,17.20
2023-04-15T08:27:46.989Z,17.60
2023-04-15T08:30:14.464Z,17.90
2023-04-15T08:32:46.242Z,18.30
2023-04-15T08:35:13.849Z,18.60
2023-04-15T08:37:40.580Z,18.70
2023-04-15T08:40:09.359Z,18.90
2023-04-15T08:42:42.877Z,19.20
2023-04-15T08:45:13.648Z,19.40
2023-04-15T08:47:41.858Z,19.60
2023-04-15T08:50:10.694Z,19.70
2023-04-15T08:52:38.339Z,20.00
2023-04-15T08:55:06.919Z,20.10
2023-04-15T08:57:34.276Z,19.90
2023-04-15T09:00:05.525Z,20.10
2023-04-15T09:02:32.938Z,20.50
2023-04-15T09:04:59.839Z,20.80
2023-04-15T09:07:27.076Z,21.30
2023-04-15T09:09:54.186Z,21.90
2023-04-15T09:12:21.813Z,22.40
2023-04-15T09:14:49.469Z,22.70
2023-04-15T09:17:21.770Z,22.70
2023-04-15T09:19:48.847Z,22.60
2023-04-15T09:22:15.838Z,22.50
2023-04-15T09:24:43.479Z,22.70
2023-04-15T09:27:11.183Z,22.80
2023-04-15T09:29:38.222Z,23.10
2023-04-15T09:32:15.583Z,23.60
2023-04-15T09:34:43.044Z,24.10
2023-04-15T09:37:11.248Z,24.30
2023-04-15T09:39:50.065Z,24.50
2023-04-15T09:42:23.952Z,24.30
2023-04-15T09:44:52.727Z,24.10
2023-04-15T09:47:32.604Z,24.10
2023-04-15T09:50:00.927Z,24.10
2023-04-15T09:52:28.684Z,24.10
2023-04-15T09:54:58.057Z,24.00
2023-04-15T09:57:25.230Z,23.90
2023-04-15T09:59:52.380Z,23.90
2023-04-15T10:02:23.045Z,23.90
2023-04-15T10:04:51.808Z,23.90
2023-04-15T10:07:22.647Z,23.90
2023-04-15T10:09:50.124Z,23.80
2023-04-15T10:12:21.599Z,23.60
2023-04-15T10:14:53.048Z,23.30
2023-04-15T10:17:22.970Z,23.20
2023-04-15T10:19:52.929Z,23.10
2023-04-15T10:22:19.940Z,22.90
2023-04-15T10:24:47.634Z,23.00
2023-04-15T10:27:14.565Z,23.20
2023-04-15T10:29:42.276Z,23.20
2023-04-15T10:32:09.838Z,23.00
2023-04-15T10:34:37.724Z,22.90
2023-04-15T10:37:04.785Z,22.80
2023-04-15T10:39:34.698Z,22.80
2023-04-15T10:42:33.817Z,22.90
2023-04-15T10:45:00.758Z,22.90
2023-04-15T10:47:28.576Z,23.10
2023-04-15T10:50:00.408Z,23.40
2023-04-15T10:52:28.573Z,23.70
2023-04-15T10:55:16.384Z,24.10
2023-04-15T10:57:43.859Z,24.60
2023-04-15T11:00:15.923Z,24.90
2023-04-15T11:02:59.340Z,25.10
2023-04-15T11:05:41.760Z,25.00
2023-04-15T11:08:09.943Z,25.20
2023-04-15T11:10:36.778Z,25.50
2023-04-15T11:13:04.573Z,25.50
2023-04-15T11:15:41.661Z,25.60
2023-04-15T11:18:19.955Z,25.70
2023-04-15T11:20:53.836Z,25.90
2023-04-15T11:23:46.779Z,26.20
2023-04-15T11:26:14.044Z,26.20
2023-04-15T11:28:44.782Z,26.00
2023-04-15T11:31:15.342Z,25.70
2023-04-15T11:33:55.588Z,25.00
2023-04-15T11:36:27.270Z,24.80
2023-04-15T11:38:54.197Z,24.60
2023-04-15T11:41:24.701Z,24.20
2023-04-15T11:43:52.227Z,24.10
2023-04-15T11:46:19.622Z,24.40
2023-04-15T11:48:47.542Z,24.90
2023-04-15T11:51:14.866Z,25.00
2023-04-15T11:53:49.777Z,25.10
2023-04-15T11:56:21.981Z,25.20
2023-04-15T11:59:08.028Z,24.80
2023-04-15T12:01:39.832Z,24.50
2023-04-15T12:04:25.213Z,24.40
2023-04-15T12:06:52.985Z,24.50
2023-04-15T12:09:20.460Z,24.70
2023-04-15T12:11:58.201Z,25.00
2023-04-15T12:14:32.118Z,24.90
2023-04-15T12:17:01.509Z,24.50
2023-04-15T12:19:34.752Z,24.50
2023-04-15T12:22:06.684Z,24.70
2023-04-15T12:24:34.895Z,25.00
2023-04-15T12:27:09.857Z,25.20
2023-04-15T12:29:39.076Z,25.00
2023-04-15T12:32:17.000Z,25.00
2023-04-15T12:34:52.707Z,25.30
2023-04-15T12:37:19.834Z,25.10
2023-04-15T12:39:49.294Z,25.10
2023-04-15T12:42:17.000Z,25.10
2023-04-15T12:44:43.999Z,24.80
2023-04-15T12:47:11.824Z,24.60
2023-04-15T12:49:39.523Z,24.60
2023-04-15T12:52:06.797Z,24.80
2023-04-15T12:54:34.353Z,25.20
2023-04-15T12:57:01.405Z,25.50
2023-04-15T12:59:28.445Z,25.60
2023-04-15T13:01:55.619Z,25.60
2023-04-15T13:04:23.121Z,25.70
2023-04-15T13:06:50.417Z,25.80
2023-04-15T13:09:17.275Z,26.00
2023-04-15T13:11:44.186Z,26.00
2023-04-15T13:14:13.094Z,25.80
2023-04-15T13:16:40.847Z,25.70
2023-04-15T13:19:08.011Z,25.70
2023-04-15T13:21:36.188Z,25.60
2023-04-15T13:24:04.274Z,25.10
2023-04-15T13:26:31.784Z,24.40
2023-04-15T13:28:58.709Z,23.90
2023-04-15T13:31:26.286Z,23.40
2023-04-15T13:33:53.347Z,23.20
2023-04-15T13:36:20.171Z,23.10
2023-04-15T13:38:48.645Z,23.20
2023-04-15T13:41:17.325Z,23.20
2023-04-15T13:43:44.138Z,23.40
2023-04-15T13:46:11.159Z,23.70
2023-04-15T13:48:38.099Z,23.80
2023-04-15T13:51:05.008Z,23.50
2023-04-15T13:53:37.635Z,22.90
2023-04-15T13:56:07.771Z,22.40
2023-04-15T13:58:34.634Z,22.30
2023-04-15T14:01:03.222Z,22.40
2023-04-15T14:03:31.848Z,22.70
2023-04-15T14:05:59.414Z,22.60
2023-04-15T14:08:26.307Z,22.60
2023-04-15T14:10:53.218Z,22.70
2023-04-15T14:13:19.995Z,22.80
2023-04-15T14:15:47.421Z,22.70
2023-04-15T14:18:14.347Z,22.50
2023-04-15T14:20:41.100Z,22.30
2023-04-15T14:23:08.145Z,21.80
2023-04-15T14:25:35.033Z,21.30
2023-04-15T14:28:03.479Z,20.90
2023-04-15T14:30:30.901Z,20.50
2023-04-15T14:32:57.993Z,20.10
2023-04-15T14:35:26.658Z,19.60
2023-04-15T14:37:54.435Z,19.10
2023-04-15T14:40:21.747Z,18.70
2023-04-15T14:42:48.783Z,18.40
2023-04-15T14:45:15.754Z,18.10
2023-04-15T14:47:42.591Z,18.10
2023-04-15T14:50:09.964Z,18.20
2023-04-15T14:52:39.812Z,18.20
2023-04-15T14:55:07.994Z,18.00
2023-04-15T14:57:34.788Z,17.90
2023-04-15T15:00:01.819Z,17.80
2023-04-15T15:02:38.300Z,17.90
2023-04-15T15:05:06.910Z,18.00
2023-04-15T15:07:33.859Z,18.10
2023-04-15T15:10:00.803Z,18.20
2023-04-15T15:12:27.734Z,18.20
2023-04-15T15:14:55.721Z,18.10
2023-04-15T15:17:22.674Z,18.10
2023-04-15T15:19:49.578Z,17.90
2023-04-15T15:22:16.587Z,17.60
2023-04-15T15:24:43.409Z,17.30
2023-04-15T15:27:10.458Z,17.00
2023-04-15T15:29:38.088Z,17.00
2023-04-15T15:32:05.171Z,17.00
2023-04-15T15:34:31.930Z,16.80
2023-04-15T15:36:58.780Z,16.80
2023-04-15T15:39:25.929Z,16.70
2023-04-15T15:41:52.839Z,16.60
2023-04-15T15:44:19.680Z,16.30
2023-04-15T15:46:46.462Z,16.10
2023-04-15T15:49:13.299Z,15.80
2023-04-15T15:51:40.157Z,15.70
2023-04-15T15:54:06.949Z,15.80
2023-04-15T15:56:35.052Z,16.10
2023-04-15T15:59:01.906Z,16.30
2023-04-15T16:01:28.962Z,16.30
2023-04-15T16:03:55.792Z,16.10
2023-04-15T16:06:22.736Z,15.80
2023-04-15T16:08:49.686Z,15.60
2023-04-15T16:11:16.453Z,15.40
2023-04-15T16:13:43.266Z,15.30
2023-04-15T16:16:10.053Z,15.00
2023-04-15T16:18:36.841Z,15.00
2023-04-15T16:21:03.817Z,15.00
2023-04-15T16:23:31.354Z,14.90
2023-04-15T16:25:58.170Z,14.90
2023-04-15T16:28:27.181Z,14.80
2023-04-15T16:30:54.827Z,14.70
2023-04-15T16:33:21.799Z,14.50
2023-04-15T16:35:48.668Z,14.30
2023-04-15T16:38:15.645Z,14.10
2023-04-15T16:40:42.650Z,13.90
2023-04-15T16:43:11.381Z,13.90
2023-04-15T16:45:38.691Z,13.80
2023-04-15T16:48:05.800Z,13.70
2023-04-15T16:50:32.838Z,13.60
2023-04-15T16:52:59.702Z,13.60
2023-04-15T16:55:26.806Z,13.60
2023-04-15T16:58:01.596Z,13.50
2023-04-15T17:00:36.203Z,13.50
2023-04-15T17:03:03.595Z,13.50
2023-04-15T17:05:31.139Z,13.40
2023-04-15T17:07:58.533Z,13.40
2023-04-15T17:10:25.376Z,13.30
2023-04-15T17:12:52.783Z,13.30
2023-04-15T17:15:20.029Z,13.20
2023-04-15T17:17:46.886Z,13.30
2023-04-15T17:20:14.089Z,13.30
2023-04-15T17:22:40.912Z,13.20
2023-04-15T17:25:08.175Z,13.10
2023-04-15T17:27:35.251Z,13.00
2023-04-15T17:30:02.163Z,12.90
2023-04-15T17:32:31.844Z,12.80
2023-04-15T17:34:58.910Z,12.70
2023-04-15T17:37:25.845Z,12.70
2023-04-15T17:39:53.245Z,12.60
2023-04-15T17:42:21.476Z,12.50
2023-04-15T17:44:48.234Z,12.40
2023-04-15T17:47:15.165Z,12.40
2023-04-15T17:49:41.952Z,12.40
2023-04-15T17:52:08.774Z,12.30
2023-04-15T17:54:35.808Z,12.20
2023-04-15T17:57:03.251Z,12.20
2023-04-15T17:59:30.347Z,12.20
2023-04-15T18:01:58.703Z,12.20
2023-04-15T18:04:26.832Z,12.10
2023-04-15T18:06:54.214Z,12.10
2023-04-15T18:09:21.138Z,12.00
2023-04-15T18:11:48.876Z,12.00
2023-04-15T18:14:27.111Z,11.90
2023-04-15T18:17:01.368Z,11.90
2023-04-15T18:19:28.375Z,11.80
2023-04-15T18:21:55.184Z,11.70
2023-04-15T18:24:22.749Z,11.70
2023-04-15T18:26:49.668Z,11.60
2023-04-15T18:29:16.668Z,11.60
2023-04-15T18:31:43.702Z,11.50
2023-04-15T18:34:11.013Z,11.40
2023-04-15T18:36:37.792Z,11.30
2023-04-15T18:39:05.105Z,11.30
2023-04-15T18:41:33.206Z,11.30
2023-04-15T18:43:59.979Z,11.20
2023-04-15T18:46:28.126Z,11.20
2023-04-15T18:48:55.040Z,11.20
2023-04-15T18:51:21.813Z,11.20
2023-04-15T18:53:48.706Z,11.20
2023-04-15T18:56:15.479Z,11.20
2023-04-15T18:59:11.594Z,11.10
2023-04-15T19:01:31.643Z,11.00
2023-04-15T19:03:59.372Z,11.00
2023-04-15T19:06:27.082Z,10.90
2023-04-15T19:08:54.330Z,10.90
2023-04-15T19:11:21.744Z,10.80
2023-04-15T19:13:49.139Z,10.80
2023-04-15T19:16:16.101Z,10.80
2023-04-15T19:18:43.129Z,10.70
2023-04-15T19:21:11.347Z,10.60
2023-04-15T19:23:38.528Z,10.70
2023-04-15T19:26:05.741Z,10.70
2023-04-15T19:28:32.614Z,10.80
2023-04-15T19:30:59.527Z,10.80
2023-04-15T19:33:31.421Z,10.70
2023-04-15T19:36:04.187Z,10.70
2023-04-15T19:38:31.699Z,10.70
2023-04-15T19:40:59.072Z,10.70
2023-04-15T19:43:26.004Z,10.70
2023-04-15T19:45:54.663Z,10.70
2023-04-15T19:48:23.086Z,10.60
2023-04-15T19:50:50.035Z,10.60
2023-04-15T19:53:17.025Z,10.60
2023-04-15T19:55:43.850Z,10.60
2023-04-15T19:58:10.677Z,10.60
2023-04-15T20:00:37.813Z,10.60
2023-04-15T20:03:05.632Z,10.60
2023-04-15T20:05:32.683Z,10.50
2023-04-15T20:08:01.399Z,10.40
2023-04-15T20:10:28.307Z,10.40
2023-04-15T20:12:55.118Z,10.40
2023-04-15T20:15:23.714Z,10.40
2023-04-15T20:17:50.848Z,10.40
2023-04-15T20:20:17.653Z,10.40
2023-04-15T20:22:44.440Z,10.50
2023-04-15T20:25:11.422Z,10.50
2023-04-15T20:27:38.312Z,10.50
2023-04-15T20:30:05.676Z,10.50
2023-04-15T20:32:35.900Z,10.40
2023-04-15T20:35:05.062Z,10.30
2023-04-15T20:37:33.562Z,10.40
2023-04-15T20:40:01.047Z,10.30
2023-04-15T20:42:28.324Z,10.30
2023-04-15T20:44:55.154Z,10.30
2023-04-15T20:47:22.087Z,10.30
2023-04-15T20:49:49.040Z,10.30
2023-04-15T20:52:15.822Z,10.30
2023-04-15T20:54:42.696Z,10.30
2023-04-15T20:57:09.582Z,10.20
2023-04-15T20:59:36.605Z,10.20
2023-04-15T21:02:03.568Z,10.20
2023-04-15T21:04:30.458Z,10.20
2023-04-15T21:06:57.402Z,10.20
2023-04-15T21:09:24.929Z,10.20
2023-04-15T21:14:21.456Z,10.10
2023-04-15T21:16:48.565Z,10.10
2023-04-15T21:19:15.352Z,10.10
2023-04-15T21:21:42.124Z,10.10
2023-04-15T21:24:08.998Z,10.10
2023-04-15T21:26:36.168Z,10.10
2023-04-15T21:29:03.487Z,10.10
2023-04-15T21:31:30.613Z,10.10
2023-04-15T21:33:57.490Z,10.10
2023-04-15T21:36:24.400Z,10.10
2023-04-15T21:38:51.192Z,10.10
2023-04-15T21:41:18.061Z,10.10
2023-04-15T21:43:44.850Z,10.10
2023-04-15T21:46:22.295Z,10.10
2023-04-15T21:48:53.053Z,10.10
2023-04-15T21:51:20.233Z,10.10
2023-04-15T21:53:47.288Z,10.10
2023-04-15T21:56:14.259Z,10.00
2023-04-15T21:58:41.130Z,10.00
2023-04-15T22:01:08.084Z,10.00
2023-04-15T22:03:35.693Z,10.00
2023-04-15T22:06:03.895Z,10.00
2023-04-15T22:08:38.138Z,10.00
2023-04-15T22:11:29.609Z,10.00
2023-04-15T22:13:57.351Z,10.00
2023-04-15T22:16:27.816Z,10.00
2023-04-15T22:18:55.183Z,10.00
2023-04-15T22:21:22.268Z,10.00
2023-04-15T22:23:49.799Z,10.00
2023-04-15T22:26:16.691Z,10.00
2023-04-15T22:28:43.623Z,10.00
2023-04-15T22:31:10.537Z,10.00
2023-04-15T22:33:37.541Z,10.00
2023-04-15T22:36:04.453Z,10.00
2023-04-15T22:38:31.483Z,10.00
2023-04-15T22:40:58.543Z,10.00
2023-04-15T22:43:26.079Z,10.00
2023-04-15T22:45:55.761Z,10.00
2023-04-15T22:48:22.927Z,10.00
2023-04-15T22:50:50.273Z,10.00
2023-04-15T22:53:17.742Z,10.00
2023-04-15T22:55:46.753Z,10.00
2023-04-15T22:58:14.604Z,10.00
2023-04-15T23:00:41.541Z,10.00
2023-04-15T23:03:08.630Z,9.90
2023-04-15T23:05:35.862Z,9.90
2023-04-15T23:08:03.278Z,9.90
2023-04-15T23:10:30.057Z,9.90
2023-04-15T23:12:56.768Z,9.90
2023-04-15T23:15:23.843Z,9.90
2023-04-15T23:17:50.698Z,9.90
2023-04-15T23:20:17.615Z,10.00
2023-04-15T23:22:44.590Z,10.00
2023-04-15T23:25:11.396Z,10.00
2023-04-15T23:27:38.302Z,10.00
2023-04-15T23:30:05.915Z,10.00
2023-04-15T23:32:32.715Z,9.90
2023-04-15T23:34:59.562Z,9.90
2023-04-15T23:37:26.301Z,9.90
2023-04-15T23:39:53.133Z,9.90
2023-04-15T23:42:20.032Z,9.80
2023-04-15T23:44:46.972Z,9.80
2023-04-15T23:47:13.792Z,9.80
2023-04-15T23:49:41.092Z,9.70
2023-04-15T23:52:07.996Z,9.70
2023-04-15T23:54:34.993Z,9.70
2023-04-15T23:57:03.427Z,9.70
2023-04-15T23:59:30.257Z,9.70
